Time;durP1;ratioP1;P1;durP2;ratioP2;P2;SDS_P1;SDS_P2;PMS_P1;PMS_P2;Temp;Humidity;BMP_temperature;BMP_pressure;BME280_temperature;BME280_humidity;BME280_pressure;Samples;Min_cycle;Max_cycle;Signal;HPM_P1;HPM_P2
2021/09/14 00:00:02;;;;;;;5.25;3.30;;;16.30;98.60;;;;;;5033040;28;20104;-65
2021/09/14 00:02:27;;;;;;;7.85;3.40;;;16.30;98.60;;;;;;5031338;28;20043;-65
2021/09/14 00:04:53;;;;;;;5.97;3.40;;;16.30;98.60;;;;;;5032268;28;20014;-65
2021/09/14 00:07:18;;;;;;;11.07;5.05;;;16.30;98.50;;;;;;5041917;28;20385;-65
2021/09/14 00:09:44;;;;;;;5.50;3.42;;;16.30;98.60;;;;;;5052386;28;20048;-65
2021/09/14 00:12:09;;;;;;;8.85;3.85;;;16.20;98.60;;;;;;5039372;28;20052;-65
2021/09/14 00:14:35;;;;;;;8.55;3.83;;;16.20;98.50;;;;;;5052643;28;20512;-65
2021/09/14 00:17:00;;;;;;;6.65;3.95;;;16.20;98.70;;;;;;5032835;28;20025;-65
2021/09/14 00:19:26;;;;;;;5.95;3.25;;;16.20;98.70;;;;;;5030562;28;20021;-65
2021/09/14 00:21:51;;;;;;;5.22;3.67;;;16.20;98.70;;;;;;5030604;28;20021;-65
2021/09/14 00:24:17;;;;;;;7.38;3.65;;;16.20;98.70;;;;;;5052020;28;20021;-64
2021/09/14 00:26:42;;;;;;;4.97;2.95;;;16.20;98.80;;;;;;5036026;28;20029;-65
2021/09/14 00:29:08;;;;;;;6.25;3.10;;;16.20;98.80;;;;;;5031386;28;20056;-65
2021/09/14 00:31:33;;;;;;;11.27;4.00;;;16.20;98.80;;;;;;5033817;28;20029;-64
2021/09/14 00:33:59;;;;;;;7.07;3.10;;;16.20;98.90;;;;;;5034475;28;20401;-65
2021/09/14 00:36:24;;;;;;;5.47;3.30;;;16.20;99.00;;;;;;5049419;28;20095;-65
2021/09/14 00:38:50;;;;;;;8.38;4.15;;;16.20;99.00;;;;;;5014222;28;20084;-65
2021/09/14 00:41:15;;;;;;;5.00;3.25;;;16.20;99.10;;;;;;5014039;28;20091;-65
2021/09/14 00:43:41;;;;;;;6.38;4.20;;;16.20;99.00;;;;;;5031980;28;20049;-65
2021/09/14 00:46:07;;;;;;;5.78;3.50;;;16.20;99.00;;;;;;5030407;28;20037;-64
2021/09/14 00:48:32;;;;;;;6.15;3.38;;;16.30;99.00;;;;;;5048645;28;20025;-65
2021/09/14 00:50:57;;;;;;;4.60;2.95;;;16.40;99.00;;;;;;5029619;28;20129;-65
2021/09/14 00:53:26;;;;;;;5.20;3.30;;;16.30;98.90;;;;;;5050893;28;20029;-65
2021/09/14 00:55:55;;;;;;;5.38;3.70;;;16.40;98.90;;;;;;5040229;28;20128;-64
2021/09/14 00:58:21;;;;;;;6.28;3.58;;;16.40;98.90;;;;;;5028687;28;20029;-65
2021/09/14 01:00:46;;;;;;;8.25;3.38;;;16.30;98.80;;;;;;5011985;28;20502;-65
2021/09/14 01:03:12;;;;;;;8.25;3.47;;;16.40;98.80;;;;;;5041020;28;20025;-64
2021/09/14 01:05:37;;;;;;;6.18;3.72;;;16.40;98.70;;;;;;5031799;28;20090;-64
2021/09/14 01:08:03;;;;;;;7.03;3.70;;;16.40;98.80;;;;;;5029711;28;20569;-65
2021/09/14 01:10:29;;;;;;;7.00;3.70;;;16.30;98.80;;;;;;5030086;28;20025;-65
2021/09/14 01:12:55;;;;;;;6.35;3.80;;;16.30;98.90;;;;;;5030246;28;20041;-64
2021/09/14 01:15:24;;;;;;;5.95;3.15;;;16.30;98.80;;;;;;5030706;28;20032;-64
2021/09/14 01:17:50;;;;;;;5.10;3.20;;;16.30;98.80;;;;;;5043045;28;20053;-64
2021/09/14 01:20:15;;;;;;;5.95;3.78;;;16.30;98.90;;;;;;5030110;28;20028;-64
2021/09/14 01:22:41;;;;;;;5.82;4.25;;;16.30;98.80;;;;;;5030701;28;20437;-65
2021/09/14 01:25:19;;;;;;;6.72;3.63;;;16.30;98.80;;;;;;5031132;28;20119;-64
2021/09/14 01:27:46;;;;;;;7.00;4.65;;;16.30;98.90;;;;;;5031286;28;20383;-65
2021/09/14 01:30:18;;;;;;;5.95;4.07;;;16.30;98.90;;;;;;5031439;28;20026;-65
2021/09/14 01:32:49;;;;;;;5.90;4.07;;;16.30;98.90;;;;;;5029669;28;20085;-65
2021/09/14 01:35:19;;;;;;;6.20;4.13;;;16.20;99.00;;;;;;5029496;28;20053;-65
2021/09/14 01:37:45;;;;;;;7.20;3.72;;;16.20;99.00;;;;;;5050148;28;20485;-65
2021/09/14 01:40:11;;;;;;;6.53;4.13;;;16.20;99.00;;;;;;5039684;28;20029;-65
2021/09/14 01:42:37;;;;;;;6.32;3.85;;;16.20;99.00;;;;;;5030997;28;20036;-65
2021/09/14 01:45:04;;;;;;;6.45;4.15;;;16.20;99.10;;;;;;5025873;28;20065;-65
2021/09/14 01:47:30;;;;;;;7.20;3.85;;;16.10;99.20;;;;;;5046597;28;20056;-64
2021/09/14 01:49:55;;;;;;;6.18;4.50;;;16.10;99.20;;;;;;5041985;28;20078;-64
2021/09/14 01:52:21;;;;;;;9.98;4.43;;;16.10;99.20;;;;;;5029941;28;20072;-65
2021/09/14 01:54:49;;;;;;;6.60;4.10;;;16.10;99.30;;;;;;5030634;28;20091;-64
2021/09/14 01:57:15;;;;;;;6.63;4.47;;;16.10;99.30;;;;;;5043658;28;20120;-64
2021/09/14 01:59:41;;;;;;;7.63;4.95;;;16.10;99.30;;;;;;5046798;28;20104;-65
2021/09/14 02:02:15;;;;;;;8.73;4.88;;;16.10;99.30;;;;;;5040961;28;20032;-65
2021/09/14 02:04:48;;;;;;;8.23;5.10;;;16.10;99.30;;;;;;5033456;28;20539;-65
2021/09/14 02:58:43;;;;;;;7.35;4.50;;;16.00;99.30;;;;;;5034325;28;20497;-64
2021/09/14 03:01:10;;;;;;;6.72;4.60;;;15.90;99.30;;;;;;5031010;28;20060;-64
2021/09/14 03:03:38;;;;;;;7.50;4.30;;;15.90;99.20;;;;;;5039598;28;20505;-65
2021/09/14 03:06:04;;;;;;;9.07;5.10;;;15.90;99.30;;;;;;5046182;28;20029;-64
2021/09/14 03:08:29;;;;;;;5.82;4.20;;;15.80;99.40;;;;;;5031111;28;20164;-63
2021/09/14 03:10:55;;;;;;;7.93;4.30;;;15.80;99.40;;;;;;5031615;28;20045;-64
2021/09/14 03:13:21;;;;;;;8.77;4.57;;;15.80;99.40;;;;;;5014833;28;20042;-63
2021/09/14 03:15:46;;;;;;;6.72;4.38;;;15.80;99.50;;;;;;5017622;28;20512;-64
2021/09/14 03:18:12;;;;;;;6.55;4.72;;;15.80;99.50;;;;;;5032907;28;20036;-64
2021/09/14 03:20:37;;;;;;;8.48;4.20;;;15.80;99.60;;;;;;5031237;28;20039;-64
2021/09/14 03:23:03;;;;;;;6.38;4.53;;;15.70;99.60;;;;;;5033574;28;20049;-64
2021/09/14 03:25:29;;;;;;;6.57;4.35;;;15.70;99.60;;;;;;5026213;28;20054;-65
2021/09/14 03:27:54;;;;;;;6.78;4.32;;;15.70;99.70;;;;;;5033032;28;20526;-65
2021/09/14 03:30:20;;;;;;;15.27;6.30;;;15.70;99.70;;;;;;5026670;28;20038;-64
2021/09/14 03:32:45;;;;;;;7.78;5.20;;;15.70;99.70;;;;;;5042850;28;20482;-65
2021/09/14 03:35:11;;;;;;;9.10;5.25;;;15.70;99.70;;;;;;5032596;28;20029;-65
2021/09/14 03:37:37;;;;;;;5.60;4.20;;;15.60;99.70;;;;;;5050682;28;20029;-65
2021/09/14 03:40:03;;;;;;;9.88;4.65;;;15.60;99.80;;;;;;5037428;28;20029;-65
2021/09/14 03:42:29;;;;;;;7.75;4.40;;;15.60;99.70;;;;;;5032462;28;20037;-65
2021/09/14 03:44:54;;;;;;;7.43;4.65;;;15.60;99.80;;;;;;5032533;28;20040;-65
2021/09/14 03:47:20;;;;;;;11.07;5.18;;;15.60;99.80;;;;;;5047994;28;20091;-65
2021/09/14 03:49:45;;;;;;;7.05;4.72;;;15.60;99.80;;;;;;5035049;28;20029;-65
2021/09/14 03:52:11;;;;;;;7.25;4.68;;;15.50;99.80;;;;;;5046237;28;20132;-64
2021/09/14 03:54:36;;;;;;;7.88;5.43;;;15.60;99.90;;;;;;5035359;28;20052;-64
2021/09/14 03:57:02;;;;;;;5.97;4.15;;;15.50;99.90;;;;;;5045023;28;20125;-63
2021/09/14 03:59:27;;;;;;;6.68;4.40;;;15.50;99.90;;;;;;5038593;28;20026;-63
2021/09/14 04:01:56;;;;;;;6.38;4.20;;;15.50;99.90;;;;;;5030015;28;20109;-65
2021/09/14 04:04:36;;;;;;;5.80;4.32;;;15.50;99.90;;;;;;5032034;28;20289;-64
2021/09/14 04:09:34;;;;;;;7.85;5.13;;;15.50;99.90;;;;;;5045921;28;20029;-65
2021/09/14 04:12:00;;;;;;;8.95;5.50;;;15.50;99.90;;;;;;5044459;28;20485;-64
2021/09/14 04:14:28;;;;;;;7.90;5.13;;;15.50;99.90;;;;;;5050984;28;20159;-64
2021/09/14 04:16:54;;;;;;;7.65;5.13;;;15.50;99.90;;;;;;5032477;28;20037;-64
2021/09/14 04:19:19;;;;;;;10.00;5.55;;;15.50;99.90;;;;;;5052396;28;20047;-64
2021/09/14 04:21:46;;;;;;;12.63;6.03;;;15.50;99.90;;;;;;5044683;28;20051;-64
2021/09/14 04:24:12;;;;;;;9.35;5.55;;;15.50;99.90;;;;;;5052198;28;20107;-64
2021/09/14 04:26:37;;;;;;;9.85;5.82;;;15.50;99.90;;;;;;5041817;28;20430;-64
2021/09/14 04:29:03;;;;;;;10.30;6.05;;;15.40;99.90;;;;;;5052278;28;20013;-64
2021/09/14 04:31:28;;;;;;;10.43;6.07;;;15.40;99.90;;;;;;5034836;28;20021;-64
2021/09/14 04:33:53;;;;;;;8.02;5.22;;;15.50;99.90;;;;;;5032291;28;20490;-65
2021/09/14 04:36:19;;;;;;;8.60;5.03;;;15.40;99.90;;;;;;5029636;28;20108;-65
2021/09/14 04:38:44;;;;;;;11.10;5.93;;;15.40;99.90;;;;;;5032040;28;20410;-65
2021/09/14 04:41:10;;;;;;;8.98;4.60;;;15.40;99.90;;;;;;5030290;28;20033;-65
2021/09/14 04:43:35;;;;;;;9.90;5.93;;;15.40;99.90;;;;;;5029907;28;20091;-65
2021/09/14 04:46:02;;;;;;;9.25;4.90;;;15.40;99.90;;;;;;5031347;28;20100;-65
2021/09/14 04:48:28;;;;;;;6.35;4.60;;;15.30;99.90;;;;;;5031786;28;20054;-65
2021/09/14 04:50:53;;;;;;;9.30;4.85;;;15.40;99.90;;;;;;5029998;28;20096;-65
2021/09/14 04:53:19;;;;;;;7.93;4.68;;;15.40;99.90;;;;;;5031532;28;20054;-65
2021/09/14 04:55:44;;;;;;;9.15;5.55;;;15.40;99.90;;;;;;5030811;28;20056;-65
2021/09/14 04:58:10;;;;;;;7.18;4.95;;;15.40;99.90;;;;;;5033375;28;20021;-65
2021/09/14 05:00:35;;;;;;;10.85;5.72;;;15.30;99.90;;;;;;5032358;28;20072;-66
2021/09/14 05:03:01;;;;;;;10.82;4.60;;;15.30;99.90;;;;;;5022321;28;20013;-67
2021/09/14 05:05:26;;;;;;;6.75;4.30;;;15.40;99.90;;;;;;5030994;28;20017;-66
2021/09/14 05:07:52;;;;;;;9.30;4.90;;;15.40;99.90;;;;;;5033243;28;20016;-66
2021/09/14 05:10:17;;;;;;;8.15;4.93;;;15.40;99.90;;;;;;5050360;28;20104;-65
2021/09/14 05:12:43;;;;;;;10.40;5.05;;;15.40;99.90;;;;;;5031318;28;20474;-66
2021/09/14 05:15:09;;;;;;;11.32;5.15;;;15.50;99.90;;;;;;5031493;28;20021;-66
2021/09/14 05:17:35;;;;;;;7.05;4.32;;;15.50;99.90;;;;;;5031003;28;20064;-65
2021/09/14 05:20:00;;;;;;;9.18;5.35;;;15.50;99.90;;;;;;5031592;28;20017;-66
2021/09/14 05:22:31;;;;;;;7.53;5.20;;;15.50;99.90;;;;;;5032467;28;20429;-66
2021/09/14 05:24:57;;;;;;;9.40;4.63;;;15.50;99.90;;;;;;5030461;28;20024;-66
2021/09/14 05:27:22;;;;;;;10.13;5.28;;;15.40;99.90;;;;;;5046366;28;20036;-67
2021/09/14 05:29:48;;;;;;;8.90;6.85;;;15.50;99.90;;;;;;5042051;28;20100;-65
2021/09/14 05:32:17;;;;;;;7.85;4.78;;;15.50;99.90;;;;;;5044516;28;20041;-65
2021/09/14 05:34:45;;;;;;;8.48;5.25;;;15.50;99.90;;;;;;5047105;28;20030;-65
2021/09/14 05:37:11;;;;;;;11.80;5.47;;;15.60;99.90;;;;;;5033833;28;20120;-66
2021/09/14 05:39:36;;;;;;;7.55;4.68;;;15.60;99.90;;;;;;5037591;28;20097;-66
2021/09/14 05:42:02;;;;;;;8.05;5.22;;;15.60;99.90;;;;;;5047822;28;20064;-66
2021/09/14 05:44:27;;;;;;;8.40;5.13;;;15.70;99.90;;;;;;5032432;28;20030;-66
2021/09/14 05:46:53;;;;;;;8.68;4.95;;;15.70;99.90;;;;;;5039144;28;20036;-67
2021/09/14 05:49:18;;;;;;;12.90;5.13;;;15.70;99.90;;;;;;5038006;28;21851;-66
2021/09/14 05:51:44;;;;;;;9.10;5.10;;;15.70;99.90;;;;;;5044492;28;20041;-67
2021/09/14 05:54:09;;;;;;;8.07;4.50;;;15.80;99.90;;;;;;5037075;28;20037;-66
2021/09/14 05:56:35;;;;;;;6.45;4.40;;;15.80;99.90;;;;;;5044029;28;20477;-66
2021/09/14 05:59:01;;;;;;;9.60;5.28;;;15.80;99.90;;;;;;5033488;28;20460;-66
2021/09/14 06:01:28;;;;;;;14.68;6.65;;;15.80;99.90;;;;;;5041418;28;20486;-67
2021/09/14 06:03:53;;;;;;;7.32;4.80;;;15.80;99.90;;;;;;5038276;28;20041;-66
2021/09/14 06:06:19;;;;;;;7.13;4.95;;;15.90;99.90;;;;;;5040239;28;20459;-66
2021/09/14 06:08:44;;;;;;;11.80;5.60;;;15.80;99.90;;;;;;5054932;28;20021;-68
2021/09/14 06:11:10;;;;;;;9.38;6.03;;;15.80;99.90;;;;;;5042123;28;20034;-67
2021/09/14 06:13:35;;;;;;;8.15;5.53;;;15.80;99.90;;;;;;5034193;28;20420;-69
2021/09/14 06:16:03;;;;;;;16.10;6.07;;;15.80;99.90;;;;;;5037315;28;20025;-69
2021/09/14 06:18:28;;;;;;;10.55;5.43;;;15.80;99.90;;;;;;5053632;28;20025;-69
2021/09/14 06:20:54;;;;;;;9.15;4.72;;;15.80;99.90;;;;;;5039442;28;20033;-66
2021/09/14 06:23:20;;;;;;;7.35;4.43;;;15.90;99.90;;;;;;5034542;28;20060;-67
2021/09/14 06:25:45;;;;;;;7.15;4.43;;;15.90;99.90;;;;;;5030512;28;20482;-67
2021/09/14 06:28:11;;;;;;;9.80;4.95;;;15.90;99.90;;;;;;5046286;28;20029;-68
2021/09/14 06:30:36;;;;;;;7.38;4.20;;;16.00;99.70;;;;;;5033740;28;20952;-66
2021/09/14 06:33:02;;;;;;;6.15;4.68;;;16.00;99.80;;;;;;5030013;28;20037;-67
2021/09/14 06:35:27;;;;;;;8.00;4.22;;;16.00;99.80;;;;;;5039050;28;20036;-67
2021/09/14 06:37:53;;;;;;;6.32;3.20;;;16.10;99.80;;;;;;5035391;28;20394;-65
2021/09/14 06:40:18;;;;;;;6.45;3.50;;;16.10;99.60;;;;;;5032346;28;20021;-65
2021/09/14 06:42:44;;;;;;;5.15;3.63;;;16.10;99.30;;;;;;5035398;28;20072;-65
2021/09/14 06:45:10;;;;;;;6.30;3.60;;;16.20;99.10;;;;;;5030433;28;20029;-65
2021/09/14 06:47:36;;;;;;;6.30;3.35;;;16.20;99.40;;;;;;5038039;28;20033;-65
2021/09/14 06:50:02;;;;;;;9.15;3.92;;;16.20;99.20;;;;;;5041442;28;20021;-66
2021/09/14 06:52:28;;;;;;;4.97;3.05;;;16.30;99.00;;;;;;5032105;28;20096;-66
2021/09/14 06:54:53;;;;;;;6.35;3.33;;;16.30;98.80;;;;;;5039532;28;20422;-65
2021/09/14 06:57:19;;;;;;;6.10;3.50;;;16.40;98.60;;;;;;5038505;28;20040;-65
2021/09/14 06:59:45;;;;;;;8.10;3.70;;;16.40;98.40;;;;;;5041905;28;20774;-65
2021/09/14 07:02:11;;;;;;;4.47;3.10;;;16.40;98.40;;;;;;5028942;28;20033;-65
2021/09/14 07:04:36;;;;;;;5.80;3.30;;;16.40;98.50;;;;;;5024840;28;20024;-65
2021/09/14 07:07:02;;;;;;;5.20;3.13;;;16.50;98.40;;;;;;5030332;28;20068;-65
2021/09/14 07:09:27;;;;;;;5.22;2.78;;;16.50;98.10;;;;;;5031467;28;20022;-65
2021/09/14 07:11:52;;;;;;;5.13;2.63;;;16.50;97.90;;;;;;5030340;28;20052;-66
2021/09/14 07:14:18;;;;;;;4.38;2.78;;;16.50;97.90;;;;;;5030602;28;20028;-65
2021/09/14 07:16:43;;;;;;;6.93;3.15;;;16.70;97.90;;;;;;5031859;28;20013;-65
2021/09/14 07:19:09;;;;;;;8.30;2.55;;;16.70;97.90;;;;;;5027736;28;20397;-67
2021/09/14 07:21:34;;;;;;;7.35;3.00;;;16.70;97.60;;;;;;5032780;28;20108;-66
2021/09/14 07:24:00;;;;;;;10.77;3.17;;;16.80;97.70;;;;;;5032518;28;20482;-66
2021/09/14 07:26:26;;;;;;;6.25;2.75;;;16.90;97.50;;;;;;5029180;28;20022;-67
2021/09/14 07:28:51;;;;;;;3.97;2.55;;;16.90;97.30;;;;;;5031251;28;20123;-66
2021/09/14 07:31:16;;;;;;;4.28;2.38;;;17.00;97.40;;;;;;5027976;28;20021;-66
2021/09/14 07:33:43;;;;;;;4.28;2.88;;;17.00;97.40;;;;;;5018025;28;20037;-66
2021/09/14 07:36:08;;;;;;;3.90;2.53;;;17.10;97.60;;;;;;5025747;28;20042;-67
2021/09/14 07:38:39;;;;;;;6.13;2.40;;;17.20;97.70;;;;;;5013285;28;20479;-67
2021/09/14 07:41:05;;;;;;;4.85;2.67;;;17.20;97.30;;;;;;5025557;28;20031;-66
2021/09/14 07:43:30;;;;;;;6.82;2.83;;;17.30;97.00;;;;;;5030480;28;20029;-66
2021/09/14 07:45:56;;;;;;;7.97;2.95;;;17.30;97.10;;;;;;5030549;28;20035;-67
2021/09/14 07:48:21;;;;;;;7.47;3.08;;;17.30;96.80;;;;;;5029743;28;20036;-67
2021/09/14 07:50:47;;;;;;;5.10;2.90;;;17.40;97.00;;;;;;5032486;28;20474;-66
2021/09/14 07:53:13;;;;;;;4.88;2.75;;;17.40;97.00;;;;;;5027964;28;20045;-67
2021/09/14 07:55:38;;;;;;;6.90;2.58;;;17.50;96.70;;;;;;5037107;28;20124;-66
2021/09/14 07:58:04;;;;;;;6.38;2.75;;;17.50;96.70;;;;;;5042616;28;20104;-67
2021/09/14 08:00:30;;;;;;;4.78;2.60;;;17.60;96.50;;;;;;5040942;28;20033;-66
2021/09/14 08:02:57;;;;;;;8.10;4.07;;;17.60;96.30;;;;;;5040297;28;20071;-67
2021/09/14 08:05:24;;;;;;;4.82;2.58;;;17.60;96.20;;;;;;5034079;28;20651;-66
2021/09/14 08:07:49;;;;;;;4.95;2.40;;;17.60;96.10;;;;;;5034548;28;20036;-66
2021/09/14 08:10:16;;;;;;;4.65;2.10;;;17.60;96.10;;;;;;5028164;28;20494;-66
2021/09/14 08:12:41;;;;;;;5.40;2.45;;;17.70;96.00;;;;;;5026180;28;20044;-67
2021/09/14 08:15:07;;;;;;;9.45;2.88;;;17.70;95.90;;;;;;5027104;28;20108;-66
2021/09/14 08:17:33;;;;;;;6.43;2.35;;;17.70;95.70;;;;;;5031261;28;20025;-67
2021/09/14 08:20:00;;;;;;;7.03;2.40;;;17.70;95.70;;;;;;5028465;28;20492;-66
2021/09/14 08:22:25;;;;;;;3.90;2.53;;;17.80;95.60;;;;;;5024564;28;20021;-67
2021/09/14 08:24:51;;;;;;;6.85;2.80;;;17.80;95.70;;;;;;5032452;28;20014;-67
2021/09/14 08:27:16;;;;;;;8.73;2.75;;;17.90;95.50;;;;;;5032253;28;20417;-66
2021/09/14 08:29:42;;;;;;;5.55;2.58;;;17.90;95.50;;;;;;5029832;28;20040;-67
2021/09/14 08:32:08;;;;;;;5.60;2.63;;;18.00;95.70;;;;;;5026467;28;20030;-67
2021/09/14 08:34:34;;;;;;;4.65;2.28;;;18.00;95.70;;;;;;5032003;28;20021;-67
2021/09/14 08:36:59;;;;;;;6.38;3.55;;;18.10;95.50;;;;;;5023612;28;20482;-67
2021/09/14 08:39:25;;;;;;;5.32;2.88;;;18.20;95.70;;;;;;5023175;28;20024;-67
2021/09/14 08:41:50;;;;;;;7.72;2.40;;;18.20;95.70;;;;;;5030202;28;20428;-67
2021/09/14 08:44:16;;;;;;;4.60;2.55;;;18.30;95.50;;;;;;5031630;28;20036;-68
2021/09/14 08:46:42;;;;;;;5.95;2.63;;;18.40;95.30;;;;;;5027640;28;20029;-68
2021/09/14 08:49:10;;;;;;;4.38;2.80;;;18.40;95.10;;;;;;5028393;28;20075;-67
2021/09/14 08:51:36;;;;;;;7.20;2.47;;;18.40;95.00;;;;;;5029290;28;20112;-68
2021/09/14 08:54:02;;;;;;;6.75;2.72;;;18.50;95.00;;;;;;5030850;28;20044;-67
2021/09/14 08:56:27;;;;;;;5.35;2.80;;;18.50;94.90;;;;;;5025260;28;20080;-67
2021/09/14 08:59:00;;;;;;;4.68;2.65;;;18.50;95.00;;;;;;5023639;28;20112;-67
2021/09/14 09:01:27;;;;;;;6.43;2.53;;;18.60;95.10;;;;;;5026712;28;20040;-67
2021/09/14 09:04:04;;;;;;;4.38;2.70;;;18.70;95.30;;;;;;5026530;28;20030;-67
2021/09/14 09:06:31;;;;;;;7.15;3.00;;;18.70;95.00;;;;;;5030116;28;20029;-67
2021/09/14 09:09:11;;;;;;;3.38;2.35;;;18.80;94.80;;;;;;5025540;28;20032;-67
2021/09/14 09:11:36;;;;;;;3.58;2.50;;;18.70;94.70;;;;;;5023895;28;20033;-68
2021/09/14 09:14:04;;;;;;;5.13;2.42;;;18.80;95.00;;;;;;5030152;28;20029;-68
2021/09/14 09:16:30;;;;;;;7.32;3.10;;;18.90;94.80;;;;;;5027727;28;20069;-68
2021/09/14 09:18:58;;;;;;;3.95;2.50;;;18.90;94.70;;;;;;5023519;28;20052;-67
2021/09/14 09:21:42;;;;;;;6.30;2.70;;;19.00;94.50;;;;;;5041052;28;20036;-67
2021/09/14 09:24:11;;;;;;;5.20;2.60;;;19.00;94.60;;;;;;5028261;28;20635;-68
2021/09/14 09:26:42;;;;;;;5.22;2.75;;;19.00;94.50;;;;;;5029456;28;20060;-67
2021/09/14 09:29:10;;;;;;;3.65;2.40;;;19.00;94.50;;;;;;5026361;28;20029;-67
2021/09/14 09:31:42;;;;;;;5.78;3.25;;;19.10;94.40;;;;;;5030060;28;20087;-67
2021/09/14 09:34:09;;;;;;;7.95;3.83;;;19.20;94.30;;;;;;5024265;28;20117;-67
2021/09/14 09:36:41;;;;;;;3.75;2.33;;;19.20;94.10;;;;;;5026880;28;20022;-66
2021/09/14 09:39:10;;;;;;;4.22;2.90;;;19.30;94.00;;;;;;5030550;28;20116;-67
2021/09/14 09:41:39;;;;;;;4.30;3.10;;;19.40;94.00;;;;;;5028632;28;20030;-67
2021/09/14 09:44:11;;;;;;;6.50;2.80;;;19.30;93.90;;;;;;5028699;28;20032;-67
2021/09/14 09:46:36;;;;;;;6.40;2.97;;;19.40;93.70;;;;;;5030424;28;20057;-67
2021/09/14 09:49:06;;;;;;;6.10;2.83;;;19.40;93.80;;;;;;5029699;28;20107;-67
2021/09/14 09:51:32;;;;;;;5.82;2.95;;;19.50;93.70;;;;;;5027349;28;20534;-67
2021/09/14 09:53:58;;;;;;;6.60;3.05;;;19.50;93.90;;;;;;5028574;28;20037;-67
2021/09/14 09:56:23;;;;;;;5.75;2.60;;;19.60;93.80;;;;;;5027084;28;20044;-67
2021/09/14 09:58:50;;;;;;;7.85;2.88;;;19.70;93.80;;;;;;5029767;28;20506;-67
2021/09/14 10:01:17;;;;;;;6.00;2.65;;;19.70;93.40;;;;;;5031019;28;20030;-67
2021/09/14 10:03:53;;;;;;;4.63;2.53;;;19.70;93.40;;;;;;5030112;28;20029;-68
2021/09/14 10:06:21;;;;;;;5.70;2.80;;;19.80;93.10;;;;;;5030176;28;20033;-68
2021/09/14 10:08:53;;;;;;;5.65;2.65;;;19.90;93.20;;;;;;5017014;28;20426;-68
2021/09/14 10:11:27;;;;;;;8.57;2.92;;;19.90;92.90;;;;;;5029535;28;20038;-68
2021/09/14 10:14:10;;;;;;;6.00;2.95;;;19.90;93.00;;;;;;5036271;28;20112;-67
2021/09/14 10:16:44;;;;;;;7.72;3.25;;;19.90;92.70;;;;;;5033961;28;20038;-68
2021/09/14 10:19:21;;;;;;;5.20;2.45;;;19.90;92.40;;;;;;5029222;28;20079;-68
2021/09/14 10:22:02;;;;;;;3.95;2.33;;;20.00;92.40;;;;;;5033863;28;20037;-67
2021/09/14 10:24:28;;;;;;;4.47;2.63;;;20.00;92.70;;;;;;5030710;28;20034;-68
2021/09/14 10:27:12;;;;;;;4.60;2.53;;;20.10;92.80;;;;;;5034854;28;20029;-68
2021/09/14 10:29:40;;;;;;;6.30;3.10;;;20.10;92.60;;;;;;5033707;28;20029;-68
2021/09/14 10:32:14;;;;;;;3.30;2.22;;;20.20;92.80;;;;;;5031425;28;20033;-68
2021/09/14 10:34:52;;;;;;;5.37;2.70;;;20.20;92.80;;;;;;5033976;28;20037;-68
2021/09/14 10:37:18;;;;;;;5.20;2.67;;;20.20;92.50;;;;;;5030817;28;20296;-68
2021/09/14 10:39:44;;;;;;;4.75;2.75;;;20.20;92.30;;;;;;5031754;28;20164;-68
2021/09/14 10:42:20;;;;;;;4.88;2.92;;;20.20;92.40;;;;;;5029777;28;20033;-68
2021/09/14 10:44:49;;;;;;;7.25;2.88;;;20.20;92.30;;;;;;5024684;28;20506;-68
2021/09/14 10:47:18;;;;;;;7.20;2.97;;;20.20;92.10;;;;;;5033495;28;20041;-68
2021/09/14 10:49:44;;;;;;;15.38;3.42;;;20.20;92.00;;;;;;5037108;28;20374;-68
2021/09/14 10:52:11;;;;;;;6.70;2.90;;;20.20;92.30;;;;;;5035189;28;20041;-68
2021/09/14 10:55:13;;;;;;;4.82;2.72;;;20.30;92.20;;;;;;5043677;28;20038;-68
2021/09/14 10:57:41;;;;;;;5.93;3.00;;;20.30;92.20;;;;;;5027820;28;20048;-68
2021/09/14 11:00:10;;;;;;;6.63;2.80;;;20.30;92.00;;;;;;5025479;28;20026;-68
2021/09/14 11:02:37;;;;;;;4.85;2.63;;;20.40;92.20;;;;;;5039475;28;20104;-68
2021/09/14 11:05:04;;;;;;;5.85;2.80;;;20.50;92.10;;;;;;5039362;28;20052;-68
2021/09/14 11:07:30;;;;;;;6.65;2.50;;;20.60;92.20;;;;;;5032042;28;20512;-68
2021/09/14 11:09:57;;;;;;;8.32;2.90;;;20.70;92.20;;;;;;5034033;28;20029;-67
2021/09/14 11:12:25;;;;;;;7.05;2.95;;;20.90;92.20;;;;;;5030935;28;20044;-68
2021/09/14 11:14:52;;;;;;;5.13;2.78;;;21.00;92.00;;;;;;5032923;28;20036;-68
2021/09/14 11:17:26;;;;;;;5.45;3.25;;;21.10;92.00;;;;;;5018249;28;20490;-68
2021/09/14 11:19:52;;;;;;;4.03;2.72;;;21.20;92.00;;;;;;5023798;28;20080;-68
2021/09/14 11:22:31;;;;;;;3.55;2.42;;;21.30;91.50;;;;;;5040415;28;20044;-68
2021/09/14 11:24:57;;;;;;;5.65;2.83;;;21.40;91.30;;;;;;5033529;28;20355;-67
2021/09/14 11:27:23;;;;;;;4.00;2.75;;;21.50;91.30;;;;;;5029974;28;20037;-67
2021/09/14 11:29:49;;;;;;;4.70;2.58;;;21.60;91.10;;;;;;5034599;28;20033;-66
2021/09/14 11:32:15;;;;;;;4.43;2.80;;;21.70;91.20;;;;;;5055308;28;20106;-66
2021/09/14 11:34:41;;;;;;;4.20;2.72;;;21.90;91.00;;;;;;5046146;28;20046;-68
2021/09/14 11:37:06;;;;;;;5.57;2.67;;;22.00;90.50;;;;;;5041362;28;20113;-66
2021/09/14 11:39:36;;;;;;;4.85;2.83;;;22.00;89.10;;;;;;5047036;28;20057;-68
2021/09/14 11:42:02;;;;;;;4.88;2.85;;;22.10;89.60;;;;;;5049969;28;20037;-68
2021/09/14 11:44:28;;;;;;;4.53;3.00;;;22.20;89.00;;;;;;5032503;28;20026;-65
2021/09/14 11:46:54;;;;;;;4.65;3.00;;;22.20;89.40;;;;;;5041427;28;20021;-65
2021/09/14 11:49:27;;;;;;;4.07;2.85;;;22.30;88.60;;;;;;5050536;28;20068;-67
2021/09/14 11:51:59;;;;;;;3.40;2.63;;;22.40;89.90;;;;;;5022678;28;20033;-65
2021/09/14 11:54:33;;;;;;;4.10;3.05;;;22.40;89.10;;;;;;5027639;28;20684;-67
2021/09/14 11:56:59;;;;;;;8.53;2.87;;;22.40;88.60;;;;;;5041174;28;20036;-65
2021/09/14 11:59:36;;;;;;;5.53;3.40;;;22.50;88.80;;;;;;5030945;28;20679;-66
2021/09/14 12:02:03;;;;;;;3.72;2.70;;;22.50;87.20;;;;;;5032894;28;20150;-67
2021/09/14 12:04:28;;;;;;;4.93;3.30;;;22.50;87.10;;;;;;5031736;28;20029;-66
2021/09/14 12:06:55;;;;;;;3.60;3.00;;;22.40;87.10;;;;;;5034454;28;20083;-67
2021/09/14 12:09:22;;;;;;;4.75;2.97;;;22.40;85.90;;;;;;5036890;28;20068;-66
2021/09/14 12:12:02;;;;;;;4.05;2.88;;;22.40;86.40;;;;;;5037669;28;20466;-66
2021/09/14 12:14:28;;;;;;;4.63;3.08;;;22.50;87.00;;;;;;5031646;28;20418;-67
2021/09/14 12:17:00;;;;;;;6.05;3.38;;;22.50;88.30;;;;;;5031169;28;20079;-68
2021/09/14 12:19:25;;;;;;;3.13;2.83;;;22.50;86.50;;;;;;5031150;28;20025;-67
2021/09/14 12:21:52;;;;;;;6.32;3.25;;;22.50;86.70;;;;;;5037811;28;20039;-67
2021/09/14 12:24:18;;;;;;;5.28;3.03;;;22.60;86.50;;;;;;5035811;28;20418;-67
2021/09/14 12:26:45;;;;;;;3.60;3.08;;;22.60;86.10;;;;;;5031478;28;20061;-66
2021/09/14 12:29:12;;;;;;;6.65;3.03;;;22.70;87.10;;;;;;5030602;28;20124;-47
2021/09/14 12:31:39;;;;;;;5.20;2.85;;;22.70;87.50;;;;;;5031079;28;20063;-68
2021/09/14 12:34:04;;;;;;;4.85;3.50;;;22.80;86.60;;;;;;5031307;28;20126;-67
2021/09/14 12:36:30;;;;;;;7.60;3.22;;;22.70;86.70;;;;;;5025347;28;20021;-67
2021/09/14 12:38:56;;;;;;;5.22;3.00;;;22.70;85.10;;;;;;5031124;28;20029;-68
2021/09/14 12:41:21;;;;;;;6.93;2.92;;;22.70;86.40;;;;;;5041821;28;20461;-66
2021/09/14 12:43:48;;;;;;;5.70;3.10;;;22.60;84.70;;;;;;5039123;28;20037;-66
2021/09/14 12:46:15;;;;;;;4.18;3.00;;;22.70;84.20;;;;;;5031498;28;20025;-66
2021/09/14 12:48:42;;;;;;;6.53;3.50;;;22.70;84.40;;;;;;5027154;28;20033;-66
2021/09/14 12:51:07;;;;;;;3.60;3.00;;;22.70;84.00;;;;;;5030068;28;20028;-66
2021/09/14 12:53:33;;;;;;;4.68;3.03;;;22.70;84.00;;;;;;5029939;28;20029;-66
2021/09/14 12:55:59;;;;;;;5.47;3.22;;;22.80;83.70;;;;;;5038572;28;20084;-68
2021/09/14 12:58:24;;;;;;;5.95;3.05;;;22.80;83.00;;;;;;5039169;28;20022;-67
2021/09/14 13:00:50;;;;;;;5.20;2.90;;;22.80;82.70;;;;;;5036548;28;20036;-68
2021/09/14 13:03:15;;;;;;;4.57;3.25;;;22.70;82.80;;;;;;5030547;28;20107;-66
2021/09/14 13:05:42;;;;;;;5.10;3.03;;;22.70;83.20;;;;;;5028685;28;20079;-67
2021/09/14 13:08:08;;;;;;;5.82;3.03;;;22.70;82.80;;;;;;5036501;28;20385;-67
2021/09/14 13:10:34;;;;;;;5.63;3.60;;;22.80;82.10;;;;;;5044660;28;20113;-67
2021/09/14 13:18:29;;;;;;;4.07;3.03;;;22.80;81.80;;;;;;5027633;28;22181;-67
2021/09/14 13:20:55;;;;;;;5.65;2.95;;;22.80;81.10;;;;;;5031284;28;20091;-68
2021/09/14 13:23:20;;;;;;;4.93;2.67;;;22.70;81.60;;;;;;5030952;28;20028;-67
2021/09/14 13:25:46;;;;;;;4.65;2.65;;;22.70;81.40;;;;;;5035595;28;20040;-66
2021/09/14 13:28:11;;;;;;;5.85;2.90;;;22.70;81.80;;;;;;5038727;28;20323;-67
2021/09/14 13:30:37;;;;;;;4.22;2.92;;;22.70;82.00;;;;;;5036480;28;20163;-67
2021/09/14 13:33:03;;;;;;;7.57;2.80;;;22.80;82.60;;;;;;5037127;28;20501;-67
2021/09/14 13:35:29;;;;;;;5.43;3.22;;;22.90;83.20;;;;;;5037580;28;22180;-67
2021/09/14 13:37:54;;;;;;;4.80;2.63;;;23.00;81.80;;;;;;5029771;28;20167;-67
2021/09/14 13:40:20;;;;;;;4.60;2.72;;;23.00;81.20;;;;;;5029517;28;20026;-67
2021/09/14 13:42:53;;;;;;;8.18;3.90;;;23.10;80.80;;;;;;5030407;28;20049;-67